createdAt,value
2019-05-18T00:00:48.339Z,10.20
2019-05-18T00:03:17.234Z,8.33
2019-05-18T00:05:46.330Z,8.30
2019-05-18T00:08:15.322Z,8.20
2019-05-18T00:10:44.213Z,8.37
2019-05-18T00:13:13.104Z,8.37
2019-05-18T00:15:42.098Z,7.80
2019-05-18T00:18:11.091Z,8.17
2019-05-18T00:20:40.085Z,8.07
2019-05-18T00:23:09.077Z,8.27
2019-05-18T00:25:39.074Z,8.50
2019-05-18T00:28:08.087Z,10.40
2019-05-18T00:30:36.979Z,7.83
2019-05-18T00:33:05.870Z,9.10
2019-05-18T00:35:34.865Z,8.57
2019-05-18T00:38:03.856Z,7.60
2019-05-18T00:40:32.446Z,8.00
2019-05-18T00:43:00.914Z,8.17
2019-05-18T00:45:29.368Z,8.20
2019-05-18T00:47:57.815Z,8.10
2019-05-18T00:50:26.365Z,9.20
2019-05-18T00:52:54.946Z,7.00
2019-05-18T00:55:23.511Z,8.43
2019-05-18T00:57:51.996Z,8.83
2019-05-18T01:00:20.598Z,7.10
2019-05-18T01:02:49.075Z,8.10
2019-05-18T01:05:17.524Z,12.40
2019-05-18T01:07:45.969Z,8.03
2019-05-18T01:10:14.518Z,7.83
2019-05-18T01:12:43.102Z,8.20
2019-05-18T01:15:12.606Z,8.33
2019-05-18T01:17:54.976Z,8.50
2019-05-18T01:20:11.258Z,8.17
2019-05-18T01:22:39.736Z,8.70
2019-05-18T01:25:08.179Z,10.17
2019-05-18T01:27:36.698Z,10.80
2019-05-18T01:30:06.670Z,9.50
2019-05-18T01:32:35.148Z,8.90
2019-05-18T01:35:06.635Z,9.30
2019-05-18T01:37:35.287Z,8.37
2019-05-18T01:40:05.205Z,8.30
2019-05-18T01:42:33.679Z,9.67
2019-05-18T01:45:15.757Z,8.73
2019-05-18T01:47:32.284Z,8.63
2019-05-18T01:50:00.762Z,9.37
2019-05-18T01:52:29.248Z,9.30
2019-05-18T01:54:57.696Z,10.30
2019-05-18T01:57:26.206Z,9.30
2019-05-18T01:59:54.650Z,10.47
2019-05-18T02:02:23.167Z,8.67
2019-05-18T02:04:53.106Z,8.70
2019-05-18T02:07:26.142Z,9.57
2019-05-18T02:09:59.289Z,9.43
2019-05-18T02:12:32.549Z,9.80
2019-05-18T02:15:01.021Z,10.60
2019-05-18T02:17:29.471Z,9.30
2019-05-18T02:19:58.026Z,9.60
2019-05-18T02:22:26.523Z,11.87
2019-05-18T02:24:54.969Z,10.33
2019-05-18T02:27:23.485Z,8.90
2019-05-18T02:29:51.920Z,9.73
2019-05-18T02:32:20.407Z,9.17
2019-05-18T02:34:48.844Z,9.43
2019-05-18T02:37:19.412Z,8.70
2019-05-18T02:39:49.460Z,9.43
2019-05-18T02:42:17.908Z,9.30
2019-05-18T02:44:46.357Z,8.97
2019-05-18T02:47:14.848Z,10.00
2019-05-18T02:49:43.306Z,11.23
2019-05-18T02:52:11.770Z,9.23
2019-05-18T02:54:40.249Z,10.97
2019-05-18T02:57:08.799Z,9.83
2019-05-18T02:59:37.282Z,10.13
2019-05-18T03:02:05.762Z,10.43
2019-05-18T03:04:34.191Z,9.47
2019-05-18T03:07:03.349Z,9.77
2019-05-18T03:09:31.836Z,10.00
2019-05-18T03:12:00.287Z,10.10
2019-05-18T03:14:28.886Z,10.00
2019-05-18T03:16:57.371Z,8.70
2019-05-18T03:19:25.816Z,11.07
2019-05-18T03:21:54.308Z,11.63
2019-05-18T03:24:22.810Z,11.47
2019-05-18T03:26:51.220Z,11.80
2019-05-18T03:29:19.772Z,11.20
2019-05-18T03:31:48.190Z,11.70
2019-05-18T03:34:16.646Z,10.03
2019-05-18T03:36:45.135Z,10.57
2019-05-18T03:39:13.591Z,10.10
2019-05-18T03:41:42.040Z,10.70
2019-05-18T03:44:10.560Z,10.03
2019-05-18T03:46:39.038Z,10.57
2019-05-18T03:49:23.667Z,11.03
2019-05-18T03:51:37.567Z,11.20
2019-05-18T03:54:06.119Z,11.67
2019-05-18T03:56:34.703Z,13.43
2019-05-18T03:59:03.289Z,11.50
2019-05-18T04:01:31.745Z,11.10
2019-05-18T04:04:00.249Z,16.70
2019-05-18T04:06:28.709Z,13.20
2019-05-18T04:08:57.149Z,12.27
2019-05-18T04:11:25.702Z,12.53
2019-05-18T04:13:54.204Z,11.93
2019-05-18T04:16:22.653Z,13.00
2019-05-18T04:18:51.139Z,14.17
2019-05-18T04:21:19.604Z,12.90
2019-05-18T04:23:48.055Z,14.43
2019-05-18T04:26:16.580Z,12.80
2019-05-18T04:28:45.116Z,11.93
2019-05-18T04:31:13.645Z,13.07
2019-05-18T04:33:42.234Z,13.67
2019-05-18T04:36:10.720Z,16.90
2019-05-18T04:38:39.185Z,13.93
2019-05-18T04:41:07.644Z,13.97
2019-05-18T04:43:36.148Z,12.93
2019-05-18T04:46:05.044Z,12.57
2019-05-18T04:48:33.936Z,14.47
2019-05-18T04:51:02.927Z,12.87
2019-05-18T04:53:31.919Z,12.57
2019-05-18T04:56:02.493Z,14.53
2019-05-18T04:58:31.444Z,13.67
2019-05-18T05:01:00.333Z,16.50
2019-05-18T05:03:29.220Z,14.50
2019-05-18T05:05:58.220Z,14.13
2019-05-18T05:08:27.108Z,14.20
2019-05-18T05:10:55.997Z,17.53
2019-05-18T05:13:24.992Z,15.97
2019-05-18T05:15:54.087Z,18.00
2019-05-18T05:18:22.979Z,20.97
2019-05-18T05:20:51.970Z,21.20
2019-05-18T05:23:20.864Z,20.47
2019-05-18T05:25:50.920Z,21.07
2019-05-18T05:28:20.182Z,18.97
2019-05-18T05:30:49.071Z,25.30
2019-05-18T05:33:18.065Z,22.83
2019-05-18T05:35:47.058Z,27.10
2019-05-18T05:38:15.949Z,23.90
2019-05-18T05:40:44.838Z,22.67
2019-05-18T05:43:15.634Z,25.53
2019-05-18T05:45:44.565Z,25.93
2019-05-18T05:48:13.456Z,25.53
2019-05-18T05:50:42.348Z,23.57
2019-05-18T05:53:11.238Z,22.93
2019-05-18T05:55:40.233Z,28.67
2019-05-18T05:58:09.114Z,29.33
2019-05-18T06:00:39.006Z,25.63
2019-05-18T06:03:08.194Z,27.03
2019-05-18T06:05:37.073Z,27.70
2019-05-18T06:08:05.916Z,27.37
2019-05-18T06:10:35.210Z,26.53
2019-05-18T06:13:03.757Z,29.63
2019-05-18T06:15:32.631Z,27.60
2019-05-18T06:18:01.723Z,29.90
2019-05-18T06:20:30.656Z,28.53
2019-05-18T06:22:59.108Z,32.00
2019-05-18T06:25:27.546Z,30.60
2019-05-18T06:27:56.034Z,30.40
2019-05-18T06:30:24.580Z,27.00
2019-05-18T06:32:53.023Z,24.90
2019-05-18T06:35:23.081Z,28.03
2019-05-18T06:37:51.523Z,25.67
2019-05-18T06:40:19.981Z,25.03
2019-05-18T06:42:48.873Z,24.90
2019-05-18T06:45:17.824Z,24.60
2019-05-18T06:47:50.664Z,25.13
2019-05-18T06:50:20.840Z,22.93
2019-05-18T06:52:49.788Z,23.27
2019-05-18T06:55:18.636Z,20.57
2019-05-18T06:57:47.921Z,23.53
2019-05-18T07:00:16.972Z,21.67
2019-05-18T07:02:45.825Z,20.87
2019-05-18T07:05:14.726Z,21.07
2019-05-18T07:07:43.572Z,20.57
2019-05-18T07:10:12.518Z,20.77
2019-05-18T07:12:41.412Z,21.53
2019-05-18T07:15:10.561Z,21.80
2019-05-18T07:17:39.406Z,20.03
2019-05-18T07:20:08.597Z,18.97
2019-05-18T07:22:37.449Z,20.70
2019-05-18T07:25:07.498Z,17.47
2019-05-18T07:27:36.588Z,17.17
2019-05-18T07:30:08.523Z,21.00
2019-05-18T07:32:37.580Z,21.13
2019-05-18T07:35:06.873Z,20.80
2019-05-18T07:37:36.037Z,19.47
2019-05-18T07:40:07.851Z,21.60
2019-05-18T07:42:36.747Z,21.73
2019-05-18T07:45:10.062Z,22.20
2019-05-18T07:47:38.904Z,22.73
2019-05-18T07:50:08.191Z,20.93
2019-05-18T07:52:37.036Z,20.97
2019-05-18T07:55:07.848Z,22.77
2019-05-18T07:57:36.738Z,20.07
2019-05-18T08:00:06.280Z,18.53
2019-05-18T08:02:35.134Z,19.57
2019-05-18T08:05:05.615Z,19.40
2019-05-18T08:07:34.469Z,19.07
2019-05-18T08:10:03.611Z,18.33
2019-05-18T08:12:32.505Z,17.93
2019-05-18T08:15:01.380Z,18.97
2019-05-18T08:17:30.227Z,17.70
2019-05-18T08:19:59.120Z,19.37
2019-05-18T08:22:27.965Z,18.40
2019-05-18T08:24:56.817Z,18.40
2019-05-18T08:27:25.704Z,16.90
2019-05-18T08:29:54.596Z,18.40
2019-05-18T08:32:23.448Z,18.80
2019-05-18T08:34:52.288Z,19.10
2019-05-18T08:37:21.172Z,17.90
2019-05-18T08:39:50.022Z,18.47
2019-05-18T08:42:18.866Z,16.37
2019-05-18T08:44:47.750Z,18.67
2019-05-18T08:47:16.600Z,18.87
2019-05-18T08:49:45.448Z,17.20
2019-05-18T08:52:14.338Z,17.80
2019-05-18T08:54:43.187Z,18.03
2019-05-18T08:57:12.043Z,16.80
2019-05-18T08:59:40.928Z,17.47
2019-05-18T09:02:09.796Z,18.30
2019-05-18T09:04:38.643Z,18.77
2019-05-18T09:07:07.527Z,17.90
2019-05-18T09:09:36.375Z,17.70
2019-05-18T09:12:05.448Z,17.90
2019-05-18T09:14:34.324Z,17.97
2019-05-18T09:17:03.168Z,19.40
2019-05-18T09:19:32.014Z,18.40
2019-05-18T09:22:00.899Z,18.67
2019-05-18T09:24:30.050Z,18.23
2019-05-18T09:26:59.087Z,18.00
2019-05-18T09:29:27.968Z,18.27
2019-05-18T09:31:56.819Z,19.00
2019-05-18T09:34:25.666Z,20.20
2019-05-18T09:36:54.552Z,18.00
2019-05-18T09:39:23.401Z,18.30
2019-05-18T09:41:52.255Z,17.43
2019-05-18T09:44:21.145Z,19.30
2019-05-18T09:46:49.999Z,19.33
2019-05-18T09:49:18.839Z,19.10
2019-05-18T09:51:47.721Z,19.37
2019-05-18T09:54:16.607Z,19.03
2019-05-18T09:56:45.447Z,18.80
2019-05-18T09:59:14.299Z,19.60
2019-05-18T10:01:43.190Z,19.13
2019-05-18T10:04:12.038Z,19.70
2019-05-18T10:06:40.882Z,21.13
2019-05-18T10:09:09.874Z,19.93
2019-05-18T10:11:38.992Z,20.57
2019-05-18T10:14:07.856Z,19.87
2019-05-18T10:16:36.748Z,19.57
2019-05-18T10:19:05.601Z,19.80
2019-05-18T10:21:34.465Z,19.87
2019-05-18T10:24:03.352Z,20.53
2019-05-18T10:26:32.188Z,21.70
2019-05-18T10:29:01.036Z,20.87
2019-05-18T10:31:29.924Z,23.17
2019-05-18T10:33:58.772Z,20.37
2019-05-18T10:36:27.618Z,20.83
2019-05-18T10:38:56.499Z,22.17
2019-05-18T10:41:25.346Z,20.83
2019-05-18T10:43:54.183Z,21.33
2019-05-18T10:46:23.172Z,20.67
2019-05-18T10:48:52.015Z,21.00
2019-05-18T10:51:20.905Z,21.87
2019-05-18T10:53:49.860Z,23.23
2019-05-18T10:56:18.750Z,19.97
2019-05-18T10:58:47.641Z,20.97
2019-05-18T11:01:16.500Z,23.53
2019-05-18T11:03:45.423Z,22.40
2019-05-18T11:06:14.417Z,22.00
2019-05-18T11:08:43.409Z,22.93
2019-05-18T11:11:12.285Z,20.80
2019-05-18T11:13:41.134Z,22.93
2019-05-18T11:16:10.180Z,24.20
2019-05-18T11:18:38.997Z,24.87
2019-05-18T11:21:08.042Z,22.73
2019-05-18T11:23:44.120Z,22.60
2019-05-18T11:26:07.511Z,22.70
2019-05-18T11:28:36.361Z,21.40
2019-05-18T11:31:05.272Z,22.97
2019-05-18T11:33:34.111Z,23.30
2019-05-18T11:36:02.961Z,21.67
2019-05-18T11:38:31.836Z,21.20
2019-05-18T11:41:00.693Z,23.50
2019-05-18T11:43:29.525Z,21.70
2019-05-18T11:45:58.400Z,23.17
2019-05-18T11:48:27.249Z,21.57
2019-05-18T11:50:56.100Z,22.53
2019-05-18T11:53:24.980Z,21.70
2019-05-18T11:55:53.868Z,23.33
2019-05-18T11:58:22.728Z,23.03
2019-05-18T12:00:51.677Z,24.23
2019-05-18T12:03:20.587Z,23.20
2019-05-18T12:05:49.422Z,24.80
2019-05-18T12:08:18.276Z,22.30
2019-05-18T12:10:47.181Z,22.63
2019-05-18T12:13:16.031Z,21.87
2019-05-18T12:15:44.882Z,22.63
2019-05-18T12:18:13.768Z,22.10
2019-05-18T12:20:42.819Z,24.83
2019-05-18T12:23:11.706Z,24.53
2019-05-18T12:25:42.097Z,21.27
2019-05-18T12:28:10.987Z,26.93
2019-05-18T12:30:39.878Z,24.60
2019-05-18T12:33:08.769Z,23.43
2019-05-18T12:35:37.601Z,23.20
2019-05-18T12:38:06.552Z,24.67
2019-05-18T12:40:35.544Z,24.73
2019-05-18T12:43:04.435Z,26.03
2019-05-18T12:45:33.548Z,24.37
2019-05-18T12:48:02.626Z,24.00
2019-05-18T12:50:31.686Z,23.43
2019-05-18T12:53:00.612Z,26.03
2019-05-18T12:55:29.611Z,25.27
2019-05-18T12:57:58.595Z,23.47
2019-05-18T13:00:28.207Z,24.30
2019-05-18T13:02:59.649Z,23.60
2019-05-18T13:05:28.651Z,22.50
2019-05-18T13:07:57.541Z,21.93
2019-05-18T13:10:26.541Z,24.17
2019-05-18T13:12:55.426Z,23.47
2019-05-18T13:15:24.728Z,25.30
2019-05-18T13:17:53.742Z,24.27
2019-05-18T13:20:23.489Z,23.50
2019-05-18T13:22:52.423Z,27.73
2019-05-18T13:25:22.132Z,24.60
2019-05-18T13:27:51.038Z,23.20
2019-05-18T13:30:21.754Z,24.90
2019-05-18T13:32:50.628Z,24.80
2019-05-18T13:35:20.384Z,24.77
2019-05-18T13:37:49.444Z,23.50
2019-05-18T13:40:20.031Z,24.97
2019-05-18T13:42:48.917Z,24.10
2019-05-18T13:45:18.265Z,25.73
2019-05-18T13:47:47.253Z,24.30
2019-05-18T13:50:16.697Z,24.37
2019-05-18T13:52:45.672Z,25.33
2019-05-18T13:55:14.909Z,24.70
2019-05-18T13:57:43.756Z,23.03
2019-05-18T14:00:13.295Z,25.33
2019-05-18T14:02:42.188Z,22.83
2019-05-18T14:05:11.627Z,24.53
2019-05-18T14:07:40.523Z,24.13
2019-05-18T14:10:12.669Z,24.07
2019-05-18T14:12:41.729Z,24.07
2019-05-18T14:15:11.135Z,25.20
2019-05-18T14:17:40.029Z,23.27
2019-05-18T14:20:09.350Z,22.13
2019-05-18T14:22:38.397Z,22.80
2019-05-18T14:25:18.917Z,23.20
2019-05-18T14:27:39.989Z,23.53
2019-05-18T14:30:09.645Z,23.73
2019-05-18T14:32:38.529Z,22.87
2019-05-18T14:35:08.381Z,24.50
2019-05-18T14:37:37.231Z,24.07
2019-05-18T14:40:09.011Z,22.80
2019-05-18T14:42:37.910Z,22.40
2019-05-18T14:45:08.259Z,23.13
2019-05-18T14:47:37.112Z,22.73
2019-05-18T14:50:06.593Z,23.77
2019-05-18T14:52:35.440Z,21.50
2019-05-18T14:55:06.611Z,22.67
2019-05-18T14:57:35.723Z,23.17
2019-05-18T15:00:06.388Z,24.13
2019-05-18T15:02:35.396Z,25.00
2019-05-18T15:05:05.784Z,23.47
2019-05-18T15:07:34.736Z,20.47
2019-05-18T15:10:04.585Z,22.00
2019-05-18T15:12:33.445Z,22.83
2019-05-18T15:15:02.335Z,23.53
2019-05-18T15:17:31.188Z,22.90
2019-05-18T15:20:00.140Z,22.93
2019-05-18T15:22:29.105Z,24.07
2019-05-18T15:24:57.994Z,23.23
2019-05-18T15:27:26.840Z,22.80
2019-05-18T15:29:55.756Z,22.50
2019-05-18T15:32:24.649Z,22.73
2019-05-18T15:34:54.051Z,23.60
2019-05-18T15:37:23.043Z,22.40
2019-05-18T15:39:52.035Z,22.50
2019-05-18T15:42:20.927Z,23.83
2019-05-18T15:44:49.922Z,22.83
2019-05-18T15:47:18.913Z,22.87
2019-05-18T15:49:47.907Z,24.03
2019-05-18T15:52:17.469Z,23.37
2019-05-18T15:54:46.352Z,22.57
2019-05-18T15:57:15.202Z,22.20
2019-05-18T15:59:44.204Z,22.90
2019-05-18T16:02:13.924Z,23.20
2019-05-18T16:04:43.485Z,23.87
2019-05-18T16:07:13.208Z,20.53
2019-05-18T16:09:42.312Z,21.50
2019-05-18T16:12:11.297Z,21.93
2019-05-18T16:14:40.193Z,21.83
2019-05-18T16:17:09.409Z,20.80
2019-05-18T16:19:38.488Z,21.43
2019-05-18T16:22:07.487Z,21.50
2019-05-18T16:24:36.579Z,20.50
2019-05-18T16:27:05.573Z,22.83
2019-05-18T16:29:34.829Z,21.50
2019-05-18T16:32:03.867Z,23.70
2019-05-18T16:34:32.703Z,20.03
2019-05-18T16:37:01.849Z,21.17
2019-05-18T16:39:30.912Z,21.83
2019-05-18T16:41:59.797Z,20.87
2019-05-18T16:44:28.830Z,20.57
2019-05-18T16:46:57.925Z,19.57
2019-05-18T16:49:27.122Z,20.93
2019-05-18T16:51:56.116Z,19.07
2019-05-18T16:54:26.331Z,21.00
2019-05-18T16:56:55.159Z,19.03
2019-05-18T16:59:24.328Z,21.40
2019-05-18T17:01:53.404Z,21.17
2019-05-18T17:04:22.249Z,19.80
2019-05-18T17:06:51.132Z,19.43
2019-05-18T17:09:19.971Z,19.87
2019-05-18T17:11:49.072Z,19.10
2019-05-18T17:14:18.145Z,19.93
2019-05-18T17:16:46.994Z,21.53
2019-05-18T17:19:16.080Z,22.10
2019-05-18T17:21:44.923Z,21.33
2019-05-18T17:24:13.782Z,21.20
2019-05-18T17:26:52.444Z,19.03
2019-05-18T17:29:13.760Z,21.07
2019-05-18T17:31:43.098Z,19.60
2019-05-18T17:34:11.963Z,20.00
2019-05-18T17:36:40.871Z,19.60
2019-05-18T17:39:09.828Z,19.43
2019-05-18T17:41:38.732Z,19.50
2019-05-18T17:44:08.637Z,18.57
2019-05-18T17:46:37.547Z,17.83
2019-05-18T17:49:06.455Z,17.83
2019-05-18T17:51:35.406Z,17.87
2019-05-18T17:54:04.556Z,17.93
2019-05-18T17:56:33.692Z,19.60
2019-05-18T17:59:02.627Z,19.10
2019-05-18T18:01:31.492Z,20.23
2019-05-18T18:04:00.379Z,22.17
2019-05-18T18:06:29.397Z,20.10
2019-05-18T18:08:58.503Z,18.80
2019-05-18T18:11:27.375Z,18.73
2019-05-18T18:13:56.220Z,20.60
2019-05-18T18:16:25.519Z,21.17
2019-05-18T18:18:55.233Z,22.03
2019-05-18T18:21:24.807Z,22.43
2019-05-18T18:23:55.299Z,20.83
2019-05-18T18:26:25.128Z,21.97
2019-05-18T18:28:54.328Z,20.60
2019-05-18T18:31:23.732Z,22.93
2019-05-18T18:33:53.291Z,22.03
2019-05-18T18:36:22.443Z,23.37
2019-05-18T18:38:52.230Z,21.30
2019-05-18T18:41:21.860Z,21.67
2019-05-18T18:43:51.393Z,21.83
2019-05-18T18:46:21.282Z,19.80
2019-05-18T18:48:50.961Z,22.20
2019-05-18T18:51:20.507Z,21.00
2019-05-18T18:53:49.838Z,20.00
2019-05-18T18:56:21.469Z,21.67
2019-05-18T18:58:51.183Z,20.27
2019-05-18T19:01:20.333Z,20.70
2019-05-18T19:03:49.510Z,23.90
2019-05-18T19:06:18.578Z,21.60
2019-05-18T19:08:48.082Z,20.43
2019-05-18T19:11:17.417Z,20.77
2019-05-18T19:13:47.228Z,19.23
2019-05-18T19:16:20.295Z,21.33
2019-05-18T19:18:50.311Z,20.77
2019-05-18T19:21:19.886Z,21.77
2019-05-18T19:23:49.455Z,21.00
2019-05-18T19:26:19.365Z,21.80
2019-05-18T19:28:53.030Z,20.70
2019-05-18T19:31:22.489Z,23.17
2019-05-18T19:33:52.273Z,22.67
2019-05-18T19:36:23.251Z,23.20
2019-05-18T19:38:53.389Z,22.50
2019-05-18T19:41:26.774Z,22.27
2019-05-18T19:43:54.479Z,21.03
2019-05-18T19:46:24.653Z,22.23
2019-05-18T19:48:53.926Z,23.47
2019-05-18T19:51:23.804Z,22.80
2019-05-18T19:53:52.808Z,26.63
2019-05-18T19:56:21.755Z,22.70
2019-05-18T19:58:52.601Z,21.50
2019-05-18T20:01:21.635Z,21.83
2019-05-18T20:03:50.680Z,23.40
2019-05-18T20:06:19.572Z,22.83
2019-05-18T20:08:48.463Z,22.47
2019-05-18T20:11:17.289Z,22.93
2019-05-18T20:13:46.980Z,22.00
2019-05-18T20:16:15.969Z,23.23
2019-05-18T20:18:44.846Z,24.33
2019-05-18T20:21:13.736Z,24.90
2019-05-18T20:23:43.161Z,23.23
2019-05-18T20:26:12.029Z,22.90
2019-05-18T20:28:40.921Z,22.63
2019-05-18T20:31:10.121Z,22.30
2019-05-18T20:33:39.336Z,23.43
2019-05-18T20:36:08.208Z,21.53
2019-05-18T20:38:37.043Z,24.47
2019-05-18T20:41:05.946Z,22.40
2019-05-18T20:43:34.880Z,24.40
2019-05-18T20:46:04.693Z,23.37
2019-05-18T20:48:33.583Z,22.80
2019-05-18T20:51:02.483Z,22.40
2019-05-18T20:53:31.467Z,22.70
2019-05-18T20:56:00.460Z,22.70
2019-05-18T20:58:39.582Z,23.73
2019-05-18T21:00:59.880Z,25.60
2019-05-18T21:03:28.771Z,24.10
2019-05-18T21:05:57.661Z,26.77
2019-05-18T21:08:26.658Z,25.13
2019-05-18T21:10:55.648Z,24.03
2019-05-18T21:13:24.644Z,25.70
2019-05-18T21:15:53.535Z,24.17
2019-05-18T21:18:22.423Z,26.23
2019-05-18T21:20:51.314Z,26.00
2019-05-18T21:23:20.208Z,25.97
2019-05-18T21:25:49.091Z,28.50
2019-05-18T21:28:18.090Z,24.77
2019-05-18T21:30:46.979Z,23.60
2019-05-18T21:33:15.870Z,27.40
2019-05-18T21:35:44.864Z,26.73
2019-05-18T21:38:14.207Z,26.73
2019-05-18T21:40:44.308Z,26.60
2019-05-18T21:43:13.315Z,28.07
2019-05-18T21:45:42.177Z,25.37
2019-05-18T21:48:11.097Z,27.73
2019-05-18T21:50:39.989Z,28.50
2019-05-18T21:53:08.938Z,29.07
2019-05-18T21:55:37.917Z,27.93
2019-05-18T21:58:06.977Z,28.40
2019-05-18T22:00:36.453Z,27.70
2019-05-18T22:03:06.352Z,32.40
2019-05-18T22:05:36.367Z,29.07
2019-05-18T22:08:05.565Z,27.30
2019-05-18T22:10:34.458Z,28.37
2019-05-18T22:13:03.761Z,27.03
2019-05-18T22:15:32.597Z,28.00
2019-05-18T22:18:04.186Z,28.37
2019-05-18T22:20:34.698Z,28.20
2019-05-18T22:23:04.024Z,28.50
2019-05-18T22:25:33.736Z,27.10
2019-05-18T22:28:03.081Z,31.70
2019-05-18T22:30:31.940Z,26.90
2019-05-18T22:33:00.813Z,27.17
2019-05-18T22:35:29.863Z,28.57
2019-05-18T22:37:58.933Z,27.80
2019-05-18T22:40:27.943Z,31.40
2019-05-18T22:42:56.896Z,28.03
2019-05-18T22:45:25.788Z,30.30
2019-05-18T22:47:54.784Z,28.93
2019-05-18T22:50:24.492Z,26.67
2019-05-18T22:52:53.691Z,27.93
2019-05-18T22:55:22.632Z,26.57
2019-05-18T22:57:51.546Z,26.13
2019-05-18T23:00:20.599Z,28.10
2019-05-18T23:02:49.537Z,27.60
2019-05-18T23:05:18.532Z,31.83
2019-05-18T23:07:47.705Z,27.90
2019-05-18T23:10:17.089Z,28.13
2019-05-18T23:12:46.234Z,28.43
2019-05-18T23:15:15.182Z,29.20
2019-05-18T23:17:44.241Z,29.57
2019-05-18T23:20:13.516Z,29.37
2019-05-18T23:22:42.624Z,31.60
2019-05-18T23:25:11.959Z,29.10
2019-05-18T23:27:40.928Z,29.60
2019-05-18T23:30:11.046Z,31.13
2019-05-18T23:32:39.924Z,33.00
2019-05-18T23:35:09.031Z,33.90
2019-05-18T23:37:38.031Z,30.60
2019-05-18T23:40:07.837Z,31.30
2019-05-18T23:42:36.832Z,33.73
2019-05-18T23:45:07.258Z,33.90
2019-05-18T23:47:36.251Z,33.00
2019-05-18T23:50:06.984Z,31.40
2019-05-18T23:52:35.876Z,33.73
2019-05-18T23:55:07.151Z,30.43
2019-05-18T23:57:36.134Z,35.43
